Sainte-Felicite, Canada
Current Conditions -  °F | °C
As of 8:00 PM on Saturday 25 Oct 2014 (Local Time) from CYBC Reporting Station
Light Rain Light Rain  
Wind Chill: 32°   Ceiling: 1600
Heat Index: 41°   Visibility: 9mi
Dew Point: 37°   Wind: 18mph
Humidity: 87%   Direction: 80°E
Pressure: 29.57"   Gusts: 28mph
Location:  48.9°N, 67.33°W
Report Text: CYBC 260000Z AUTO 08016G24KT 9SM -RA OVC016 05/03 A2957 RMK SLP015
Loading
Personal Weather Stations






























Interactive Weather Map
Tropical Storm Tracking
New forecast layout! Learn more

10-Day Weather Forecast

Advertisements
Track Severe Weather on mobile